Saturday, August 18, 2018, 3:48 PM EDT
Back to Local

KRKD, Rockland, Knox County Regional Airport

Location: Owls Head, ME, United States Lat: 44.067
Local Time: 3:48 PM EDT (19:48 GMT) Lon: -69.1
Time Zone: US/Eastern Elev: 55 ft

Show me the last for .
Show Decoded

2018-08-18 14:08 METAR KRKD 181808Z AUTO VRB06KT 9SM BKN013 BKN022 OVC080 21/20 A2977 RMK AO2 =
2018-08-18 13:56 METAR KRKD 181756Z AUTO VRB03KT 10SM FEW009 BKN055 OVC075 22/20 A2977 RMK AO2
                 RAE32 SLP083 P0000 60014 T02170200 10250 20200 53010 =
2018-08-18 13:52 METAR KRKD 181752Z AUTO VRB04KT 10SM SCT009 BKN055 OVC110 21/20 A2977 RMK AO2
                 RAE32 P0000 =
2018-08-18 13:21 METAR KRKD 181721Z AUTO 02007G16KT 350V050 8SM -RA SCT004 OVC011 20/19 A2976 RMK
                 AO2 P0000 =
2018-08-18 13:02 METAR KRKD 181702Z AUTO 04007G14KT 350V080 4SM -RA BR BKN004 OVC013 21/20 A2976
                 RMK AO2 CIG 004V010 P0000 =
2018-08-18 12:56 METAR KRKD 181656Z AUTO 05008G17KT 2 1/2SM RA BR SCT006 BKN013 OVC023 21/21
                 A2976 RMK AO2 RAB10E29B47 SLP078 P0014 T02110206 =
2018-08-18 12:52 METAR KRKD 181652Z AUTO 05013G17KT 2 1/2SM +RA BR FEW009 BKN013 OVC023 23/22
                 A2976 RMK AO2 VIS 1 1/4V5 RAB10E29B47 P0013 =
2018-08-18 11:56 METAR KRKD 181556Z AUTO 00000KT 10SM OVC010 23/22 A2975 RMK AO2 CIG 007V013
                 SLP075 T02280217 =
2018-08-18 11:23 METAR KRKD 181523Z AUTO 29005KT 10SM OVC006 23/22 A2975 RMK AO2 =
2018-08-18 10:56 METAR KRKD 181456Z AUTO 26006KT 7SM OVC004 22/21 A2974 RMK AO2 CIG 003V007
                 SLP073 60000 T02220211 56006 =
2018-08-18 09:56 METAR KRKD 181356Z AUTO 24007KT 4SM BR OVC002 22/21 A2975 RMK AO2 SLP073
                 T02170211 =
2018-08-18 08:56 METAR KRKD 181256Z AUTO 23006KT 4SM BR OVC002 21/21 A2975 RMK AO2 RAE01 SLP076
                 P0000 T02110211 =
2018-08-18 08:39 METAR KRKD 181239Z AUTO 21006KT 4SM BR OVC002 21/21 A2975 RMK AO2 RAE01 P0000 =
2018-08-18 08:26 METAR KRKD 181226Z AUTO 23008KT 2 1/2SM BR OVC002 21/21 A2975 RMK AO2 RAE01
                 P0000 =
2018-08-18 08:06 METAR KRKD 181206Z AUTO 23009G17KT 1 1/2SM BR OVC002 21/21 A2976 RMK AO2 RAE01
                 P0000 =
2018-08-18 07:56 METAR KRKD 181156Z AUTO 24009KT 2SM -RA BR OVC004 21/21 A2976 RMK AO2 RAB48 CIG
                 002V006 SLP079 P0000 60003 70010 T02110206 10217 20200 58004 =
2018-08-18 07:52 METAR KRKD 181152Z AUTO 25008KT 3SM -RA BR OVC004 21/21 A2976 RMK AO2 RAB48 CIG
                 002V007 P0000 =
2018-08-18 06:56 METAR KRKD 181056Z AUTO 22005KT 7SM OVC006 21/21 A2978 RMK AO2 SLP085 T02110206
                 =
2018-08-18 05:56 METAR KRKD 180956Z AUTO 21006KT 4SM BR BKN006 21/21 A2977 RMK AO2 CIG 003V010
                 SLP083 T02110206 =
2018-08-18 05:30 METAR KRKD 180930Z AUTO 22006KT 6SM BR 22/21 A2978 RMK AO2 =
2018-08-18 04:56 METAR KRKD 180856Z AUTO 22009KT 5SM BR BKN005 21/21 A2979 RMK AO2 CIG 004V008
                 SLP087 60003 T02110211 56018 =
2018-08-18 04:44 METAR KRKD 180844Z AUTO 23008KT 5SM BR BKN005 21/21 A2979 RMK AO2 CIG 003V008 =
2018-08-18 03:56 METAR KRKD 180756Z AUTO 22008G15KT 4SM BR BKN003 BKN080 21/21 A2979 RMK AO2
                 RAE21 SLP088 P0001 T02110206 =
2018-08-18 02:56 METAR KRKD 180656Z AUTO 22009KT 3SM -RA BR OVC003 21/20 A2981 RMK AO2 RAB11
                 SLP095 P0002 T02060200 =
2018-08-18 02:37 METAR KRKD 180637Z AUTO 20007KT 4SM -RA BR BKN005 20/20 A2982 RMK AO2 RAB11
                 P0001 =
2018-08-18 02:09 METAR KRKD 180609Z AUTO 21006KT 4SM BR FEW003 SCT060 21/21 A2983 RMK AO2 =
2018-08-18 01:56 METAR KRKD 180556Z AUTO 21004KT 4SM BR BKN001 BKN060 21/21 A2984 RMK AO2
                 RAB0459E15 SLP105 P0000 60007 T02060206 10206 20183 58033 =
2018-08-18 01:41 METAR KRKD 180541Z AUTO 22006KT 3SM BR OVC001 20/20 A2985 RMK AO2 RAB0459E15
                 P0000 =
2018-08-18 01:23 METAR KRKD 180523Z AUTO 20005KT 1 1/4SM BR OVC001 20/20 A2986 RMK AO2 RAB0459E15
                 P0000 =
2018-08-18 01:16 METAR KRKD 180516Z AUTO 20005KT 3/4SM BR OVC001 20/20 A2987 RMK AO2 RAB0459E15
                 P0000 =
2018-08-18 00:56 METAR KRKD 180456Z AUTO 20004KT 1/2SM FG OVC001 19/19 A2988 RMK AO2 LTG DSNT NE
                 SLP119 T01890189 402060100 =
2018-08-18 00:34 METAR KRKD 180434Z AUTO 18004KT 1/4SM FG OVC001 19/19 A2989 RMK AO2 LTG DSNT N =
2018-08-18 00:04 METAR KRKD 180404Z AUTO VRB03KT 3/4SM BR OVC001 19/19 A2990 RMK AO2 LTG DSNT NW
                 =
2018-08-17 23:56 METAR KRKD 180356Z AUTO VRB03KT 1 1/2SM BR 19/19 A2991 RMK AO2 LTG DSNT W AND NW
                 RAE20 SLP128 P0003 T01890189 =
2018-08-17 23:33 METAR KRKD 180333Z AUTO 13004KT 2SM BR 19/19 A2991 RMK AO2 LTG DSNT W RAE20
                 P0003 $ =
2018-08-17 23:24 METAR KRKD 180324Z AUTO VRB04KT 3SM BR OVC002 18/18 A2991 RMK AO2 LTG DSNT W
                 RAE20 PRESFR P0003 =
2018-08-17 22:56 METAR KRKD 180256Z AUTO 13004KT 3SM +RA BR OVC004 19/19 A2994 RMK AO2 RAB50
                 SLP138 P0004 60004 T01890189 58014 =
2018-08-17 21:56 METAR KRKD 180156Z AUTO 00000KT 10SM OVC004 19/18 A2997 RMK AO2 SLP150 T01890183
                 =
2018-08-17 20:56 METAR KRKD 180056Z AUTO 17003KT 10SM OVC004 19/18 A2998 RMK AO2 SLP152 T01890178
                 =
2018-08-17 20:38 METAR KRKD 180038Z AUTO 14004KT 10SM BKN006 18/18 A2997 RMK AO2 =
2018-08-17 19:56 METAR KRKD 172356Z AUTO 15003KT 10SM FEW011 18/18 A2998 RMK AO2 SLP152 T01830178
                 10206 20183 58016 =
2018-08-17 18:56 METAR KRKD 172256Z AUTO 18003KT 10SM CLR 18/17 A3000 RMK AO2 SLP159 T01830172 =
2018-08-17 17:56 METAR KRKD 172156Z AUTO 17004KT 10SM CLR 19/17 A3002 RMK AO2 SLP166 T01890172 =
2018-08-17 16:56 METAR KRKD 172056Z AUTO 17007KT 10SM FEW007 20/18 A3003 RMK AO2 SLP169 T02000178
                 56019 =
2018-08-17 16:32 METAR KRKD 172032Z AUTO 17007KT 10SM FEW001 BKN007 20/18 A3003 RMK AO2 =
2018-08-17 15:56 METAR KRKD 171956Z AUTO 16007KT 10SM FEW008 20/18 A3004 RMK AO2 SLP175 T02000178
                 =

Support USWX by starting your Amazon purchase here.